createdAt,value
2022-07-26T00:01:18.655Z,39.55
2022-07-26T00:03:47.542Z,39.67
2022-07-26T00:06:16.067Z,40.00
2022-07-26T00:08:47.590Z,39.16
2022-07-26T00:11:17.264Z,39.00
2022-07-26T00:13:45.647Z,38.27
2022-07-26T00:16:14.179Z,38.15
2022-07-26T00:18:42.581Z,38.33
2022-07-26T00:21:11.704Z,38.61
2022-07-26T00:23:40.222Z,38.66
2022-07-26T00:26:08.385Z,38.92
2022-07-26T00:28:38.013Z,38.52
2022-07-26T00:31:06.285Z,38.06
2022-07-26T00:33:34.473Z,37.87
2022-07-26T00:36:02.742Z,38.37
2022-07-26T00:38:31.045Z,38.51
2022-07-26T00:41:00.108Z,38.48
2022-07-26T00:43:28.343Z,38.44
2022-07-26T00:45:58.170Z,38.36
2022-07-26T00:48:26.753Z,38.63
2022-07-26T00:50:56.097Z,38.05
2022-07-26T00:53:24.875Z,37.65
2022-07-26T00:55:54.252Z,37.42
2022-07-26T00:58:22.364Z,37.42
2022-07-26T01:00:50.554Z,37.76
2022-07-26T01:03:20.118Z,38.08
2022-07-26T01:05:50.809Z,38.52
2022-07-26T01:08:19.042Z,38.94
2022-07-26T01:10:47.186Z,39.48
2022-07-26T01:13:20.792Z,39.27
2022-07-26T01:15:48.944Z,39.18
2022-07-26T01:18:17.281Z,39.31
2022-07-26T01:20:49.265Z,39.32
2022-07-26T01:23:18.897Z,38.94
2022-07-26T01:25:48.609Z,38.96
2022-07-26T01:28:19.653Z,39.16
2022-07-26T01:30:49.232Z,39.47
2022-07-26T01:33:17.549Z,39.63
2022-07-26T01:35:45.692Z,39.73
2022-07-26T01:38:13.952Z,39.77
2022-07-26T01:40:43.591Z,39.88
2022-07-26T01:43:11.805Z,40.08
2022-07-26T01:45:39.974Z,40.01
2022-07-26T01:48:08.576Z,39.93
2022-07-26T01:50:37.067Z,39.97
2022-07-26T01:53:06.217Z,40.44
2022-07-26T01:55:34.514Z,40.59
2022-07-26T01:58:04.145Z,40.45
2022-07-26T02:00:32.709Z,40.69
2022-07-26T02:03:01.000Z,40.89
2022-07-26T02:05:29.160Z,40.92
2022-07-26T02:07:57.225Z,41.18
2022-07-26T02:10:45.554Z,41.47
2022-07-26T02:13:15.536Z,41.59
2022-07-26T02:15:43.745Z,41.87
2022-07-26T02:18:11.925Z,41.92
2022-07-26T02:20:40.366Z,42.24
2022-07-26T02:23:08.493Z,42.58
2022-07-26T02:25:36.739Z,42.84
2022-07-26T02:28:05.182Z,42.63
2022-07-26T02:30:34.621Z,42.63
2022-07-26T02:33:02.680Z,42.58
2022-07-26T02:35:32.006Z,42.36
2022-07-26T02:38:03.716Z,42.56
2022-07-26T02:40:32.386Z,43.01
2022-07-26T02:43:00.776Z,43.03
2022-07-26T02:45:29.245Z,42.69
2022-07-26T02:47:58.924Z,43.08
2022-07-26T02:50:29.174Z,43.06
2022-07-26T02:52:57.783Z,43.30
2022-07-26T02:55:27.663Z,43.47
2022-07-26T02:57:56.291Z,43.42
2022-07-26T03:00:26.803Z,43.81
2022-07-26T03:02:55.183Z,43.94
2022-07-26T03:05:25.052Z,44.30
2022-07-26T03:07:53.350Z,45.10
2022-07-26T03:10:21.489Z,46.28
2022-07-26T03:12:49.617Z,46.39
2022-07-26T03:15:18.423Z,46.12
2022-07-26T03:17:46.530Z,47.21
2022-07-26T03:20:14.937Z,47.12
2022-07-26T03:22:44.632Z,47.40
2022-07-26T03:25:12.750Z,47.39
2022-07-26T03:27:40.933Z,47.51
2022-07-26T03:30:10.265Z,47.60
2022-07-26T03:32:39.230Z,47.42
2022-07-26T03:35:08.501Z,46.92
2022-07-26T03:37:45.031Z,47.03
2022-07-26T03:40:16.267Z,47.08
2022-07-26T03:42:44.774Z,47.52
2022-07-26T03:45:14.595Z,47.25
2022-07-26T03:47:43.153Z,46.83
2022-07-26T03:50:13.600Z,47.04
2022-07-26T03:52:42.149Z,46.69
2022-07-26T03:55:24.846Z,46.39
2022-07-26T03:57:54.437Z,45.61
2022-07-26T04:00:22.517Z,44.11
2022-07-26T04:02:50.838Z,44.24
2022-07-26T04:05:21.838Z,43.19
2022-07-26T04:07:53.201Z,42.27
2022-07-26T04:10:22.537Z,40.20
2022-07-26T04:12:50.853Z,40.75
2022-07-26T04:15:21.495Z,40.44
2022-07-26T04:17:49.893Z,38.37
2022-07-26T04:20:18.190Z,37.65
2022-07-26T04:22:46.256Z,37.91
2022-07-26T04:25:14.634Z,37.17
2022-07-26T04:27:42.721Z,36.16
2022-07-26T04:30:15.154Z,34.87
2022-07-26T04:32:45.908Z,35.77
2022-07-26T04:35:16.493Z,35.85
2022-07-26T04:37:45.435Z,35.09
2022-07-26T04:40:21.237Z,37.52
2022-07-26T04:42:50.661Z,36.21
2022-07-26T04:45:18.770Z,36.10
2022-07-26T04:47:50.757Z,38.64
2022-07-26T04:50:19.647Z,39.53
2022-07-26T04:52:47.749Z,40.71
2022-07-26T04:55:16.877Z,41.73
2022-07-26T04:57:45.004Z,42.21
2022-07-26T05:00:22.831Z,43.21
2022-07-26T05:02:55.413Z,43.55
2022-07-26T05:05:25.405Z,43.02
2022-07-26T05:07:55.338Z,43.23
2022-07-26T05:10:31.965Z,43.53
2022-07-26T05:13:00.181Z,41.99
2022-07-26T05:15:35.301Z,39.84
2022-07-26T05:18:08.081Z,40.36
2022-07-26T05:20:36.692Z,40.88
2022-07-26T05:23:05.409Z,40.67
2022-07-26T05:25:33.696Z,38.64
2022-07-26T05:28:01.907Z,37.02
2022-07-26T05:30:30.403Z,36.15
2022-07-26T05:32:58.538Z,34.47
2022-07-26T05:35:28.232Z,31.90
2022-07-26T05:37:56.528Z,33.38
2022-07-26T05:40:24.729Z,31.33
2022-07-26T05:42:52.792Z,31.81
2022-07-26T05:45:20.983Z,31.52
2022-07-26T05:47:51.427Z,31.32
2022-07-26T05:50:20.064Z,30.74
2022-07-26T05:52:49.813Z,29.38
2022-07-26T05:55:17.893Z,28.76
2022-07-26T05:57:49.693Z,28.22
2022-07-26T06:00:18.691Z,27.96
2022-07-26T06:02:46.913Z,27.17
2022-07-26T06:05:15.891Z,29.42
2022-07-26T06:07:45.287Z,29.16
2022-07-26T06:10:14.727Z,28.99
2022-07-26T06:12:42.893Z,29.33
2022-07-26T06:15:15.461Z,31.36
2022-07-26T06:17:44.214Z,31.69
2022-07-26T06:20:13.072Z,33.61
2022-07-26T06:22:41.202Z,31.70
2022-07-26T06:25:09.852Z,33.89
2022-07-26T06:27:39.306Z,35.23
2022-07-26T06:30:09.855Z,35.32
2022-07-26T06:32:38.169Z,38.01
2022-07-26T06:35:06.828Z,39.01
2022-07-26T06:37:37.612Z,37.54
2022-07-26T06:40:06.973Z,38.34
2022-07-26T06:42:36.268Z,37.97
2022-07-26T06:45:07.494Z,38.65
2022-07-26T06:47:36.349Z,37.33
2022-07-26T06:50:05.178Z,36.85
2022-07-26T06:52:33.864Z,38.08
2022-07-26T06:55:02.478Z,37.80
2022-07-26T06:57:30.843Z,40.04
2022-07-26T06:59:59.145Z,40.50
2022-07-26T07:02:28.657Z,39.39
2022-07-26T07:04:56.733Z,39.08
2022-07-26T07:07:24.956Z,41.43
2022-07-26T07:09:57.378Z,42.52
2022-07-26T07:12:26.609Z,42.85
2022-07-26T07:14:54.682Z,42.99
2022-07-26T07:17:22.751Z,43.57
2022-07-26T07:19:52.305Z,41.43
2022-07-26T07:22:20.731Z,40.98
2022-07-26T07:24:48.912Z,41.12
2022-07-26T07:27:17.519Z,39.50
2022-07-26T07:29:45.782Z,39.81
2022-07-26T07:32:18.374Z,40.21
2022-07-26T07:34:48.038Z,40.19
2022-07-26T07:37:17.985Z,40.35
2022-07-26T07:39:48.666Z,40.92
2022-07-26T07:42:18.191Z,40.53
2022-07-26T07:44:46.558Z,40.74
2022-07-26T07:47:15.273Z,40.97
2022-07-26T07:49:44.058Z,41.28
2022-07-26T07:52:12.126Z,41.73
2022-07-26T07:54:42.300Z,41.84
2022-07-26T07:57:10.704Z,42.37
2022-07-26T07:59:39.615Z,43.36
2022-07-26T08:02:09.359Z,43.55
2022-07-26T08:04:37.537Z,43.30
2022-07-26T08:07:05.697Z,42.69
2022-07-26T08:09:34.151Z,43.21
2022-07-26T08:12:03.913Z,43.99
2022-07-26T08:14:33.621Z,44.32
2022-07-26T08:17:02.228Z,43.09
2022-07-26T08:19:40.899Z,42.54
2022-07-26T08:22:11.478Z,44.76
2022-07-26T08:24:40.522Z,45.53
2022-07-26T08:27:09.964Z,46.70
2022-07-26T08:29:38.181Z,46.52
2022-07-26T08:32:07.515Z,46.61
2022-07-26T08:34:36.162Z,46.10
2022-07-26T08:37:17.084Z,46.52
2022-07-26T08:39:45.903Z,46.93
2022-07-26T08:42:16.366Z,46.00
2022-07-26T08:44:45.569Z,46.07
2022-07-26T08:47:14.548Z,46.87
2022-07-26T08:49:43.381Z,46.96
2022-07-26T08:52:12.964Z,47.76
2022-07-26T08:54:44.169Z,47.10
2022-07-26T08:57:12.445Z,47.32
2022-07-26T08:59:42.788Z,45.36
2022-07-26T09:02:12.441Z,45.27
2022-07-26T09:04:44.591Z,45.30
2022-07-26T09:07:15.494Z,44.44
2022-07-26T09:09:59.513Z,43.59
2022-07-26T09:12:29.214Z,44.56
2022-07-26T09:14:59.292Z,44.73
2022-07-26T09:17:40.596Z,45.55
2022-07-26T09:20:11.839Z,44.37
2022-07-26T09:22:56.505Z,45.40
2022-07-26T09:25:26.069Z,44.44
2022-07-26T09:27:54.789Z,45.03
2022-07-26T09:30:24.662Z,44.88
2022-07-26T09:33:02.177Z,45.41
2022-07-26T09:35:49.951Z,45.11
2022-07-26T09:38:20.181Z,45.62
2022-07-26T09:40:50.545Z,45.47
2022-07-26T09:43:24.100Z,45.96
2022-07-26T09:46:10.969Z,46.18
2022-07-26T09:51:39.116Z,47.54
2022-07-26T09:54:08.505Z,47.81
2022-07-26T09:56:45.277Z,48.21
2022-07-26T09:59:15.567Z,50.44
2022-07-26T10:01:46.768Z,51.69
2022-07-26T10:04:15.598Z,54.72
2022-07-26T10:06:44.697Z,55.36
2022-07-26T10:09:13.855Z,57.30
2022-07-26T10:11:46.088Z,64.39
2022-07-26T10:14:36.949Z,77.43
2022-07-26T10:17:46.587Z,83.45
2022-07-26T10:20:42.849Z,91.95
2022-07-26T10:23:43.239Z,100.00
2022-07-26T10:26:43.249Z,100.00
2022-07-26T10:29:27.954Z,100.00
2022-07-26T10:32:20.352Z,100.00
2022-07-26T10:34:49.430Z,100.00
2022-07-26T10:37:30.060Z,100.00
2022-07-26T10:40:22.734Z,100.00
2022-07-26T10:42:50.971Z,100.00
2022-07-26T10:45:22.081Z,100.00
2022-07-26T10:48:14.145Z,100.00
2022-07-26T10:50:44.215Z,100.00
2022-07-26T10:53:19.355Z,100.00
2022-07-26T10:55:49.697Z,100.00
2022-07-26T10:58:18.425Z,100.00
2022-07-26T11:01:00.846Z,100.00
2022-07-26T11:03:38.976Z,100.00
2022-07-26T11:06:12.497Z,100.00
2022-07-26T11:08:47.460Z,100.00
2022-07-26T11:11:27.813Z,100.00
2022-07-26T11:14:06.512Z,100.00
2022-07-26T11:16:38.700Z,100.00
2022-07-26T11:19:17.075Z,100.00
2022-07-26T11:21:46.041Z,100.00
2022-07-26T11:24:15.794Z,100.00
2022-07-26T11:26:44.886Z,100.00
2022-07-26T11:29:16.813Z,100.00
2022-07-26T11:31:50.711Z,100.00
2022-07-26T11:34:29.217Z,100.00
2022-07-26T11:36:58.597Z,100.00
2022-07-26T11:39:30.596Z,100.00
2022-07-26T11:42:00.219Z,100.00
2022-07-26T11:44:28.995Z,100.00
2022-07-26T11:46:57.958Z,100.00
2022-07-26T11:49:52.780Z,100.00
2022-07-26T11:52:25.238Z,100.00
2022-07-26T11:54:55.851Z,100.00
2022-07-26T11:57:29.546Z,100.00
2022-07-26T11:59:59.608Z,100.00
2022-07-26T12:02:29.070Z,100.00
2022-07-26T12:05:15.959Z,100.00
2022-07-26T12:08:02.942Z,100.00
2022-07-26T12:10:32.872Z,100.00
2022-07-26T12:13:11.901Z,100.00
2022-07-26T12:15:48.440Z,100.00
2022-07-26T12:18:24.797Z,100.00
2022-07-26T12:21:04.980Z,100.00
2022-07-26T12:23:45.763Z,100.00
2022-07-26T12:26:23.001Z,100.00
2022-07-26T12:28:51.272Z,100.00
2022-07-26T12:31:28.912Z,100.00
2022-07-26T12:33:57.345Z,100.00
2022-07-26T12:36:27.658Z,100.00
2022-07-26T12:38:58.068Z,100.00
2022-07-26T12:41:35.402Z,100.00
2022-07-26T12:44:03.914Z,100.00
2022-07-26T12:46:33.990Z,100.00
2022-07-26T12:49:02.782Z,100.00
2022-07-26T12:51:31.047Z,100.00
2022-07-26T12:53:59.296Z,100.00
2022-07-26T12:56:27.424Z,100.00
2022-07-26T12:59:01.214Z,100.00
2022-07-26T13:01:30.851Z,100.00
2022-07-26T13:03:59.409Z,100.00
2022-07-26T13:06:27.946Z,100.00
2022-07-26T13:08:56.654Z,100.00
2022-07-26T13:11:25.137Z,100.00
2022-07-26T13:13:53.473Z,100.00
2022-07-26T13:16:23.067Z,100.00
2022-07-26T13:18:51.241Z,100.00
2022-07-26T13:21:19.507Z,100.00
2022-07-26T13:23:47.821Z,100.00
2022-07-26T13:26:16.476Z,100.00
2022-07-26T13:28:44.993Z,100.00
2022-07-26T13:31:18.660Z,100.00
2022-07-26T13:33:48.542Z,100.00
2022-07-26T13:36:16.788Z,100.00
2022-07-26T13:38:45.268Z,100.00
2022-07-26T13:41:13.987Z,100.00
2022-07-26T13:43:42.180Z,100.00
2022-07-26T13:46:10.328Z,100.00
2022-07-26T13:48:48.055Z,100.00
2022-07-26T13:51:43.918Z,100.00
2022-07-26T13:54:13.350Z,100.00
2022-07-26T13:56:41.847Z,100.00
2022-07-26T13:59:10.399Z,100.00
2022-07-26T14:01:44.741Z,100.00
2022-07-26T14:04:14.112Z,100.00
2022-07-26T14:06:44.629Z,100.00
2022-07-26T14:09:13.692Z,100.00
2022-07-26T14:11:42.673Z,100.00
2022-07-26T14:14:11.492Z,100.00
2022-07-26T14:16:40.267Z,100.00
2022-07-26T14:19:08.948Z,100.00
2022-07-26T14:21:59.628Z,100.00
2022-07-26T14:24:29.332Z,100.00
2022-07-26T14:26:59.721Z,100.00
2022-07-26T14:29:28.796Z,100.00
2022-07-26T14:31:57.276Z,100.00
2022-07-26T14:34:25.568Z,100.00
2022-07-26T14:36:54.412Z,100.00
2022-07-26T14:39:22.710Z,100.00
2022-07-26T14:41:52.230Z,100.00
2022-07-26T14:44:20.777Z,100.00
2022-07-26T14:46:48.916Z,100.00
2022-07-26T14:49:17.157Z,100.00
2022-07-26T14:51:45.566Z,100.00
2022-07-26T14:54:17.265Z,100.00
2022-07-26T14:56:45.382Z,100.00
2022-07-26T14:59:14.839Z,100.00
2022-07-26T15:01:43.198Z,100.00
2022-07-26T15:04:11.895Z,100.00
2022-07-26T15:06:40.343Z,100.00
2022-07-26T15:09:08.724Z,100.00
2022-07-26T15:11:36.887Z,100.00
2022-07-26T15:14:07.333Z,100.00
2022-07-26T15:16:37.179Z,100.00
2022-07-26T15:19:05.331Z,100.00
2022-07-26T15:21:33.489Z,100.00
2022-07-26T15:24:02.746Z,100.00
2022-07-26T15:26:30.832Z,100.00
2022-07-26T15:28:58.960Z,100.00
2022-07-26T15:31:36.636Z,100.00
2022-07-26T15:34:08.803Z,100.00
2022-07-26T15:36:37.547Z,100.00
2022-07-26T15:39:16.669Z,100.00
2022-07-26T15:41:45.774Z,100.00
2022-07-26T15:44:14.428Z,100.00
2022-07-26T15:46:45.690Z,100.00
2022-07-26T15:49:18.396Z,100.00
2022-07-26T15:51:46.627Z,100.00
2022-07-26T15:54:15.923Z,100.00
2022-07-26T15:56:44.817Z,100.00
2022-07-26T15:59:12.989Z,100.00
2022-07-26T16:01:41.059Z,100.00
2022-07-26T16:04:09.542Z,100.00
2022-07-26T16:06:39.251Z,100.00
2022-07-26T16:09:22.928Z,100.00
2022-07-26T16:11:51.137Z,100.00
2022-07-26T16:14:19.369Z,100.00
2022-07-26T16:16:47.551Z,100.00
2022-07-26T16:19:15.999Z,100.00
2022-07-26T16:21:45.796Z,100.00
2022-07-26T16:24:13.883Z,100.00
2022-07-26T16:26:43.553Z,100.00
2022-07-26T16:29:12.436Z,100.00
2022-07-26T16:31:41.675Z,100.00
2022-07-26T16:34:10.446Z,100.00
2022-07-26T16:36:38.993Z,100.00
2022-07-26T16:39:08.770Z,100.00
2022-07-26T16:41:37.180Z,100.00
2022-07-26T16:44:06.855Z,100.00
2022-07-26T16:46:35.138Z,100.00
2022-07-26T16:49:05.048Z,100.00
2022-07-26T16:51:33.297Z,100.00
2022-07-26T16:54:01.715Z,100.00
2022-07-26T16:56:31.349Z,100.00
2022-07-26T16:58:59.809Z,100.00
2022-07-26T17:01:28.069Z,100.00
2022-07-26T17:03:56.258Z,100.00
2022-07-26T17:06:24.369Z,100.00
2022-07-26T17:08:52.486Z,100.00
2022-07-26T17:11:20.826Z,100.00
2022-07-26T17:13:50.300Z,100.00
2022-07-26T17:16:21.317Z,100.00
2022-07-26T17:18:53.006Z,100.00
2022-07-26T17:21:21.476Z,100.00
2022-07-26T17:23:49.791Z,100.00
2022-07-26T17:26:18.541Z,100.00
2022-07-26T17:28:47.519Z,100.00
2022-07-26T17:31:17.013Z,100.00
2022-07-26T17:33:45.377Z,100.00
2022-07-26T17:36:21.901Z,100.00
2022-07-26T17:38:49.981Z,100.00
2022-07-26T17:41:18.470Z,100.00
2022-07-26T17:43:48.386Z,100.00
2022-07-26T17:46:17.938Z,100.00
2022-07-26T17:48:47.157Z,100.00
2022-07-26T17:51:16.167Z,100.00
2022-07-26T17:53:51.027Z,100.00
2022-07-26T17:56:21.202Z,100.00
2022-07-26T17:58:49.408Z,100.00
2022-07-26T18:01:18.945Z,100.00
2022-07-26T18:03:47.198Z,100.00
2022-07-26T18:06:15.369Z,100.00
2022-07-26T18:08:43.726Z,100.00
2022-07-26T18:11:12.488Z,100.00
2022-07-26T18:13:41.848Z,100.00
2022-07-26T18:16:09.963Z,100.00
2022-07-26T18:18:39.727Z,100.00
2022-07-26T18:21:07.920Z,100.00
2022-07-26T18:23:36.047Z,100.00
2022-07-26T18:26:04.723Z,100.00
2022-07-26T18:28:32.851Z,100.00
2022-07-26T18:31:01.013Z,100.00
2022-07-26T18:33:31.487Z,100.00
2022-07-26T18:36:01.660Z,100.00
2022-07-26T18:38:29.980Z,100.00
2022-07-26T18:40:58.107Z,100.00
2022-07-26T18:43:26.626Z,100.00
2022-07-26T18:45:54.822Z,100.00
2022-07-26T18:48:23.989Z,100.00
2022-07-26T18:50:52.632Z,100.00
2022-07-26T18:53:23.775Z,100.00
2022-07-26T18:55:52.101Z,100.00
2022-07-26T18:58:21.702Z,100.00
2022-07-26T19:00:54.838Z,100.00
2022-07-26T19:03:23.318Z,100.00
2022-07-26T19:05:52.065Z,100.00
2022-07-26T19:08:20.571Z,100.00
2022-07-26T19:10:50.903Z,100.00
2022-07-26T19:13:19.149Z,100.00
2022-07-26T19:15:47.858Z,100.00
2022-07-26T19:18:16.880Z,100.00
2022-07-26T19:20:45.565Z,100.00
2022-07-26T19:23:14.329Z,100.00
2022-07-26T19:25:43.205Z,100.00
2022-07-26T19:28:13.154Z,100.00
2022-07-26T19:30:41.296Z,100.00
2022-07-26T19:33:09.407Z,100.00
2022-07-26T19:35:37.509Z,100.00
2022-07-26T19:38:05.796Z,100.00
2022-07-26T19:40:34.585Z,100.00
2022-07-26T19:43:02.878Z,100.00
2022-07-26T19:45:32.344Z,100.00
2022-07-26T19:48:00.896Z,100.00
2022-07-26T19:50:29.312Z,100.00
2022-07-26T19:52:57.445Z,100.00
2022-07-26T19:55:25.609Z,100.00
2022-07-26T19:57:53.707Z,100.00
2022-07-26T20:00:22.754Z,100.00
2022-07-26T20:02:52.509Z,100.00
2022-07-26T20:05:20.625Z,100.00
2022-07-26T20:07:49.895Z,100.00
2022-07-26T20:10:18.084Z,100.00
2022-07-26T20:12:46.193Z,100.00
2022-07-26T20:15:14.945Z,100.00
2022-07-26T20:17:43.077Z,100.00
2022-07-26T20:20:13.702Z,100.00
2022-07-26T20:22:41.804Z,100.00
2022-07-26T20:25:10.692Z,100.00
2022-07-26T20:27:38.962Z,100.00
2022-07-26T20:30:08.934Z,100.00
2022-07-26T20:32:37.014Z,100.00
2022-07-26T20:35:05.669Z,100.00
2022-07-26T20:37:35.169Z,100.00
2022-07-26T20:40:07.735Z,100.00
2022-07-26T20:42:38.906Z,100.00
2022-07-26T20:45:11.244Z,100.00
2022-07-26T20:47:40.369Z,100.00
2022-07-26T20:50:09.948Z,100.00
2022-07-26T20:52:39.920Z,100.00
2022-07-26T20:55:08.852Z,100.00
2022-07-26T20:57:37.877Z,100.00
2022-07-26T21:00:10.491Z,100.00
2022-07-26T21:02:38.872Z,100.00
2022-07-26T21:05:08.282Z,100.00
2022-07-26T21:07:55.164Z,100.00
2022-07-26T21:10:25.929Z,100.00
2022-07-26T21:12:57.150Z,100.00
2022-07-26T21:15:25.419Z,100.00
2022-07-26T21:17:53.896Z,100.00
2022-07-26T21:20:22.222Z,100.00
2022-07-26T21:22:50.277Z,100.00
2022-07-26T21:25:18.414Z,100.00
2022-07-26T21:27:48.215Z,100.00
2022-07-26T21:30:16.423Z,100.00
2022-07-26T21:32:44.715Z,100.00
2022-07-26T21:35:12.812Z,100.00
2022-07-26T21:37:44.789Z,100.00
2022-07-26T21:40:14.644Z,100.00
2022-07-26T21:42:42.927Z,100.00
2022-07-26T21:45:12.704Z,100.00
2022-07-26T21:47:40.798Z,100.00
2022-07-26T21:50:10.367Z,100.00
2022-07-26T21:52:38.623Z,100.00
2022-07-26T21:55:08.193Z,100.00
2022-07-26T21:57:36.620Z,100.00
2022-07-26T22:00:06.346Z,100.00
2022-07-26T22:02:36.390Z,100.00
2022-07-26T22:05:24.996Z,100.00
2022-07-26T22:07:53.440Z,100.00
2022-07-26T22:10:22.813Z,100.00
2022-07-26T22:12:51.035Z,100.00
2022-07-26T22:15:19.248Z,100.00
2022-07-26T22:17:48.753Z,100.00
2022-07-26T22:20:17.257Z,100.00
2022-07-26T22:22:45.376Z,100.00
2022-07-26T22:25:13.831Z,100.00
2022-07-26T22:27:41.898Z,100.00
2022-07-26T22:30:11.284Z,100.00
2022-07-26T22:32:40.079Z,100.00
2022-07-26T22:35:10.745Z,100.00
2022-07-26T22:37:38.795Z,100.00
2022-07-26T22:40:08.348Z,100.00
2022-07-26T22:42:36.487Z,100.00
2022-07-26T22:45:09.916Z,100.00
2022-07-26T22:47:38.412Z,100.00
2022-07-26T22:50:16.683Z,100.00
2022-07-26T22:52:45.954Z,100.00
2022-07-26T22:55:14.519Z,100.00
2022-07-26T22:57:43.724Z,100.00
2022-07-26T23:00:14.001Z,100.00
2022-07-26T23:02:42.196Z,100.00
2022-07-26T23:05:11.620Z,100.00
2022-07-26T23:07:41.436Z,100.00
2022-07-26T23:10:12.535Z,100.00
2022-07-26T23:12:40.726Z,100.00
2022-07-26T23:15:11.783Z,100.00
2022-07-26T23:17:40.713Z,100.00
2022-07-26T23:20:10.728Z,100.00
2022-07-26T23:22:41.848Z,100.00
2022-07-26T23:25:11.531Z,100.00
2022-07-26T23:27:39.655Z,100.00
2022-07-26T23:30:08.690Z,100.00
2022-07-26T23:32:36.911Z,100.00
2022-07-26T23:35:05.662Z,100.00
2022-07-26T23:37:33.882Z,100.00
2022-07-26T23:40:01.973Z,100.00
2022-07-26T23:42:31.475Z,100.00
2022-07-26T23:44:59.599Z,100.00
2022-07-26T23:47:28.167Z,100.00
2022-07-26T23:49:56.232Z,100.00
2022-07-26T23:52:25.693Z,100.00
2022-07-26T23:54:53.879Z,100.00
2022-07-26T23:57:22.968Z,100.00
2022-07-26T23:59:52.395Z,100.00
